sensor_id;sensor_type;location;lat;lon;timestamp;temperature;humidity
37642;DHT22;23486;51.956;5.888;2023-05-16T00:00:33;9.80;99.90
37642;DHT22;23486;51.956;5.888;2023-05-16T00:03:00;9.80;99.90
37642;DHT22;23486;51.956;5.888;2023-05-16T00:05:27;9.80;99.90
37642;DHT22;23486;51.956;5.888;2023-05-16T00:07:53;9.80;99.90
37642;DHT22;23486;51.956;5.888;2023-05-16T00:10:18;9.80;99.90
37642;DHT22;23486;51.956;5.888;2023-05-16T00:12:44;9.80;99.90
37642;DHT22;23486;51.956;5.888;2023-05-16T00:15:10;9.80;99.90
37642;DHT22;23486;51.956;5.888;2023-05-16T00:17:38;9.70;99.90
37642;DHT22;23486;51.956;5.888;2023-05-16T00:20:05;9.70;99.90
37642;DHT22;23486;51.956;5.888;2023-05-16T00:22:35;9.70;99.90
37642;DHT22;23486;51.956;5.888;2023-05-16T00:25:01;9.60;99.90
37642;DHT22;23486;51.956;5.888;2023-05-16T00:27:27;9.60;99.90
37642;DHT22;23486;51.956;5.888;2023-05-16T00:29:54;9.60;99.90
37642;DHT22;23486;51.956;5.888;2023-05-16T00:32:19;9.60;99.90
37642;DHT22;23486;51.956;5.888;2023-05-16T00:34:48;9.50;99.90
37642;DHT22;23486;51.956;5.888;2023-05-16T00:37:13;9.50;99.90
37642;DHT22;23486;51.956;5.888;2023-05-16T00:39:39;9.50;99.90
37642;DHT22;23486;51.956;5.888;2023-05-16T00:42:05;9.40;99.90
37642;DHT22;23486;51.956;5.888;2023-05-16T00:44:31;9.30;99.90
37642;DHT22;23486;51.956;5.888;2023-05-16T00:46:57;9.30;99.90
37642;DHT22;23486;51.956;5.888;2023-05-16T00:49:24;9.20;99.90
37642;DHT22;23486;51.956;5.888;2023-05-16T00:51:50;9.20;99.90
37642;DHT22;23486;51.956;5.888;2023-05-16T00:54:16;9.20;99.90
37642;DHT22;23486;51.956;5.888;2023-05-16T00:56:42;9.00;99.90
37642;DHT22;23486;51.956;5.888;2023-05-16T00:59:07;9.10;99.90
37642;DHT22;23486;51.956;5.888;2023-05-16T01:01:34;9.00;99.90
37642;DHT22;23486;51.956;5.888;2023-05-16T01:04:00;9.00;99.90
37642;DHT22;23486;51.956;5.888;2023-05-16T01:06:26;8.90;99.90
37642;DHT22;23486;51.956;5.888;2023-05-16T01:08:52;8.90;99.90
37642;DHT22;23486;51.956;5.888;2023-05-16T01:22:19;8.80;99.90
37642;DHT22;23486;51.956;5.888;2023-05-16T01:25:04;8.70;99.90
37642;DHT22;23486;51.956;5.888;2023-05-16T01:27:30;8.70;99.90
37642;DHT22;23486;51.956;5.888;2023-05-16T01:29:56;8.60;99.90
37642;DHT22;23486;51.956;5.888;2023-05-16T01:32:21;8.60;99.90
37642;DHT22;23486;51.956;5.888;2023-05-16T01:34:51;8.60;99.90
37642;DHT22;23486;51.956;5.888;2023-05-16T01:39:58;8.50;99.90
37642;DHT22;23486;51.956;5.888;2023-05-16T01:42:29;8.50;99.90
37642;DHT22;23486;51.956;5.888;2023-05-16T01:45:09;8.50;99.90
37642;DHT22;23486;51.956;5.888;2023-05-16T01:47:40;8.40;99.90
37642;DHT22;23486;51.956;5.888;2023-05-16T01:50:13;8.40;99.90
37642;DHT22;23486;51.956;5.888;2023-05-16T01:53:18;8.40;99.90
37642;DHT22;23486;51.956;5.888;2023-05-16T01:55:46;8.40;99.90
37642;DHT22;23486;51.956;5.888;2023-05-16T01:58:18;8.30;99.90
37642;DHT22;23486;51.956;5.888;2023-05-16T02:00:44;8.30;99.90
37642;DHT22;23486;51.956;5.888;2023-05-16T02:03:10;8.30;99.90
37642;DHT22;23486;51.956;5.888;2023-05-16T02:05:36;8.20;99.90
37642;DHT22;23486;51.956;5.888;2023-05-16T02:08:02;8.20;99.90
37642;DHT22;23486;51.956;5.888;2023-05-16T02:10:28;8.20;99.90
37642;DHT22;23486;51.956;5.888;2023-05-16T02:12:53;8.20;99.90
37642;DHT22;23486;51.956;5.888;2023-05-16T02:15:19;8.10;99.90
37642;DHT22;23486;51.956;5.888;2023-05-16T02:17:45;8.10;99.90
37642;DHT22;23486;51.956;5.888;2023-05-16T02:20:12;8.00;99.90
37642;DHT22;23486;51.956;5.888;2023-05-16T02:22:38;8.00;99.90
37642;DHT22;23486;51.956;5.888;2023-05-16T02:25:05;8.00;99.90
37642;DHT22;23486;51.956;5.888;2023-05-16T02:27:30;8.00;99.90
37642;DHT22;23486;51.956;5.888;2023-05-16T02:29:56;7.90;99.90
37642;DHT22;23486;51.956;5.888;2023-05-16T02:32:24;7.90;99.90
37642;DHT22;23486;51.956;5.888;2023-05-16T02:34:50;7.90;99.90
37642;DHT22;23486;51.956;5.888;2023-05-16T02:37:16;7.90;99.90
37642;DHT22;23486;51.956;5.888;2023-05-16T02:39:41;7.90;99.90
37642;DHT22;23486;51.956;5.888;2023-05-16T02:42:07;7.90;99.90
37642;DHT22;23486;51.956;5.888;2023-05-16T02:44:33;8.00;99.90
37642;DHT22;23486;51.956;5.888;2023-05-16T02:46:58;7.90;99.90
37642;DHT22;23486;51.956;5.888;2023-05-16T02:49:24;7.90;99.90
37642;DHT22;23486;51.956;5.888;2023-05-16T02:51:50;7.80;99.90
37642;DHT22;23486;51.956;5.888;2023-05-16T02:54:16;7.80;99.90
37642;DHT22;23486;51.956;5.888;2023-05-16T02:56:42;7.70;99.90
37642;DHT22;23486;51.956;5.888;2023-05-16T02:59:07;7.70;99.90
37642;DHT22;23486;51.956;5.888;2023-05-16T03:01:33;7.70;99.90
37642;DHT22;23486;51.956;5.888;2023-05-16T03:03:59;7.60;99.90
37642;DHT22;23486;51.956;5.888;2023-05-16T03:06:25;7.60;99.90
37642;DHT22;23486;51.956;5.888;2023-05-16T03:08:50;7.60;99.90
37642;DHT22;23486;51.956;5.888;2023-05-16T03:11:17;7.60;99.90
37642;DHT22;23486;51.956;5.888;2023-05-16T03:13:45;7.50;99.90
37642;DHT22;23486;51.956;5.888;2023-05-16T03:16:10;7.50;99.90
37642;DHT22;23486;51.956;5.888;2023-05-16T03:18:36;7.50;99.90
37642;DHT22;23486;51.956;5.888;2023-05-16T03:21:02;7.60;99.90
37642;DHT22;23486;51.956;5.888;2023-05-16T03:23:27;7.60;99.90
37642;DHT22;23486;51.956;5.888;2023-05-16T03:25:53;7.60;99.90
37642;DHT22;23486;51.956;5.888;2023-05-16T03:28:18;7.70;99.90
37642;DHT22;23486;51.956;5.888;2023-05-16T03:30:44;7.70;99.90
37642;DHT22;23486;51.956;5.888;2023-05-16T03:33:10;7.70;99.90
37642;DHT22;23486;51.956;5.888;2023-05-16T03:35:36;7.80;99.90
37642;DHT22;23486;51.956;5.888;2023-05-16T03:38:02;7.80;99.90
37642;DHT22;23486;51.956;5.888;2023-05-16T03:40:28;7.80;99.90
37642;DHT22;23486;51.956;5.888;2023-05-16T03:42:53;7.80;99.90
37642;DHT22;23486;51.956;5.888;2023-05-16T03:45:19;7.80;99.90
37642;DHT22;23486;51.956;5.888;2023-05-16T03:47:45;7.80;99.90
37642;DHT22;23486;51.956;5.888;2023-05-16T03:50:10;7.80;99.90
37642;DHT22;23486;51.956;5.888;2023-05-16T03:52:36;7.80;99.90
37642;DHT22;23486;51.956;5.888;2023-05-16T03:55:02;7.80;99.90
37642;DHT22;23486;51.956;5.888;2023-05-16T03:57:32;7.80;99.90
37642;DHT22;23486;51.956;5.888;2023-05-16T03:59:58;7.90;99.90
37642;DHT22;23486;51.956;5.888;2023-05-16T04:02:24;8.00;99.90
37642;DHT22;23486;51.956;5.888;2023-05-16T04:04:50;8.20;99.90
37642;DHT22;23486;51.956;5.888;2023-05-16T04:07:15;8.10;99.90
37642;DHT22;23486;51.956;5.888;2023-05-16T04:09:41;8.20;99.90
37642;DHT22;23486;51.956;5.888;2023-05-16T04:12:07;8.20;99.90
37642;DHT22;23486;51.956;5.888;2023-05-16T04:14:33;8.30;99.90
37642;DHT22;23486;51.956;5.888;2023-05-16T04:16:59;8.30;99.90
37642;DHT22;23486;51.956;5.888;2023-05-16T04:19:25;8.40;99.90
37642;DHT22;23486;51.956;5.888;2023-05-16T04:21:51;8.40;99.90
37642;DHT22;23486;51.956;5.888;2023-05-16T04:24:17;8.50;99.90
37642;DHT22;23486;51.956;5.888;2023-05-16T04:26:43;8.50;99.90
37642;DHT22;23486;51.956;5.888;2023-05-16T04:29:08;8.50;99.90
37642;DHT22;23486;51.956;5.888;2023-05-16T04:31:34;8.50;99.90
37642;DHT22;23486;51.956;5.888;2023-05-16T04:34:01;8.60;99.90
37642;DHT22;23486;51.956;5.888;2023-05-16T04:36:27;8.60;99.90
37642;DHT22;23486;51.956;5.888;2023-05-16T04:38:55;8.60;99.90
37642;DHT22;23486;51.956;5.888;2023-05-16T04:41:21;8.50;99.90
37642;DHT22;23486;51.956;5.888;2023-05-16T04:43:48;8.50;99.90
37642;DHT22;23486;51.956;5.888;2023-05-16T04:46:14;8.60;99.90
37642;DHT22;23486;51.956;5.888;2023-05-16T04:48:42;8.60;99.90
37642;DHT22;23486;51.956;5.888;2023-05-16T04:51:08;8.60;99.90
37642;DHT22;23486;51.956;5.888;2023-05-16T04:53:33;8.60;99.90
37642;DHT22;23486;51.956;5.888;2023-05-16T04:55:59;8.60;99.90
37642;DHT22;23486;51.956;5.888;2023-05-16T04:58:25;8.60;99.90
37642;DHT22;23486;51.956;5.888;2023-05-16T05:00:51;8.50;99.90
37642;DHT22;23486;51.956;5.888;2023-05-16T05:03:17;8.60;99.90
37642;DHT22;23486;51.956;5.888;2023-05-16T05:05:43;8.60;99.90
37642;DHT22;23486;51.956;5.888;2023-05-16T05:08:08;8.50;99.90
37642;DHT22;23486;51.956;5.888;2023-05-16T05:10:35;8.50;99.90
37642;DHT22;23486;51.956;5.888;2023-05-16T05:13:00;8.50;99.90
37642;DHT22;23486;51.956;5.888;2023-05-16T05:15:26;8.50;99.90
37642;DHT22;23486;51.956;5.888;2023-05-16T05:17:52;8.50;99.90
37642;DHT22;23486;51.956;5.888;2023-05-16T05:20:17;8.50;99.90
37642;DHT22;23486;51.956;5.888;2023-05-16T05:22:43;8.60;99.90
37642;DHT22;23486;51.956;5.888;2023-05-16T05:25:09;8.70;99.90
37642;DHT22;23486;51.956;5.888;2023-05-16T05:27:35;8.80;99.90
37642;DHT22;23486;51.956;5.888;2023-05-16T05:30:01;8.80;99.90
37642;DHT22;23486;51.956;5.888;2023-05-16T05:32:26;9.00;99.90
37642;DHT22;23486;51.956;5.888;2023-05-16T05:34:52;9.10;99.90
37642;DHT22;23486;51.956;5.888;2023-05-16T05:37:17;9.20;99.90
37642;DHT22;23486;51.956;5.888;2023-05-16T05:39:43;9.30;99.90
37642;DHT22;23486;51.956;5.888;2023-05-16T05:42:09;9.30;99.90
37642;DHT22;23486;51.956;5.888;2023-05-16T05:44:36;9.30;99.90
37642;DHT22;23486;51.956;5.888;2023-05-16T05:47:02;9.30;99.90
37642;DHT22;23486;51.956;5.888;2023-05-16T05:49:28;9.30;99.90
37642;DHT22;23486;51.956;5.888;2023-05-16T05:51:54;9.30;99.90
37642;DHT22;23486;51.956;5.888;2023-05-16T05:54:20;9.30;99.90
37642;DHT22;23486;51.956;5.888;2023-05-16T05:56:46;9.30;99.90
37642;DHT22;23486;51.956;5.888;2023-05-16T05:59:12;9.30;99.90
37642;DHT22;23486;51.956;5.888;2023-05-16T06:01:37;9.40;99.90
37642;DHT22;23486;51.956;5.888;2023-05-16T06:04:04;9.30;99.90
37642;DHT22;23486;51.956;5.888;2023-05-16T06:06:30;9.30;99.90
37642;DHT22;23486;51.956;5.888;2023-05-16T06:08:56;9.30;99.90
37642;DHT22;23486;51.956;5.888;2023-05-16T06:11:22;9.30;99.90
37642;DHT22;23486;51.956;5.888;2023-05-16T06:13:47;9.30;99.90
37642;DHT22;23486;51.956;5.888;2023-05-16T06:16:13;9.30;99.90
37642;DHT22;23486;51.956;5.888;2023-05-16T06:18:38;9.30;99.90
37642;DHT22;23486;51.956;5.888;2023-05-16T06:21:05;9.30;99.90
37642;DHT22;23486;51.956;5.888;2023-05-16T06:23:31;9.40;99.90
37642;DHT22;23486;51.956;5.888;2023-05-16T06:25:57;9.50;99.90
37642;DHT22;23486;51.956;5.888;2023-05-16T06:28:22;9.50;99.90
37642;DHT22;23486;51.956;5.888;2023-05-16T06:30:48;9.50;99.90
37642;DHT22;23486;51.956;5.888;2023-05-16T06:33:18;9.50;99.90
37642;DHT22;23486;51.956;5.888;2023-05-16T06:35:44;9.50;99.90
37642;DHT22;23486;51.956;5.888;2023-05-16T06:38:10;9.50;99.90
37642;DHT22;23486;51.956;5.888;2023-05-16T06:40:35;9.50;99.90
37642;DHT22;23486;51.956;5.888;2023-05-16T06:43:02;9.50;99.90
37642;DHT22;23486;51.956;5.888;2023-05-16T06:45:27;9.60;99.90
37642;DHT22;23486;51.956;5.888;2023-05-16T06:47:54;9.50;99.90
37642;DHT22;23486;51.956;5.888;2023-05-16T06:50:20;9.60;99.90
37642;DHT22;23486;51.956;5.888;2023-05-16T06:52:45;9.60;99.90
37642;DHT22;23486;51.956;5.888;2023-05-16T06:55:11;9.80;99.90
37642;DHT22;23486;51.956;5.888;2023-05-16T06:57:37;9.90;99.90
37642;DHT22;23486;51.956;5.888;2023-05-16T07:00:03;10.00;99.90
37642;DHT22;23486;51.956;5.888;2023-05-16T07:02:28;10.10;99.90
37642;DHT22;23486;51.956;5.888;2023-05-16T07:04:54;10.20;99.90
37642;DHT22;23486;51.956;5.888;2023-05-16T07:07:19;10.30;99.90
37642;DHT22;23486;51.956;5.888;2023-05-16T07:09:45;10.60;99.90
37642;DHT22;23486;51.956;5.888;2023-05-16T07:12:11;10.90;99.90
37642;DHT22;23486;51.956;5.888;2023-05-16T07:14:36;11.10;99.90
37642;DHT22;23486;51.956;5.888;2023-05-16T07:17:02;11.30;99.90
37642;DHT22;23486;51.956;5.888;2023-05-16T07:19:28;11.60;99.90
37642;DHT22;23486;51.956;5.888;2023-05-16T07:21:53;11.80;99.90
37642;DHT22;23486;51.956;5.888;2023-05-16T07:24:19;11.90;99.90
37642;DHT22;23486;51.956;5.888;2023-05-16T07:26:44;11.70;99.90
37642;DHT22;23486;51.956;5.888;2023-05-16T07:29:10;11.60;99.90
37642;DHT22;23486;51.956;5.888;2023-05-16T07:31:36;11.50;99.90
37642;DHT22;23486;51.956;5.888;2023-05-16T07:34:01;11.40;99.90
37642;DHT22;23486;51.956;5.888;2023-05-16T07:36:27;11.30;99.90
37642;DHT22;23486;51.956;5.888;2023-05-16T07:38:52;11.20;99.90
37642;DHT22;23486;51.956;5.888;2023-05-16T07:41:18;11.20;99.90
37642;DHT22;23486;51.956;5.888;2023-05-16T07:43:44;11.20;99.90
37642;DHT22;23486;51.956;5.888;2023-05-16T07:46:10;11.40;99.90
37642;DHT22;23486;51.956;5.888;2023-05-16T07:48:35;11.50;99.90
37642;DHT22;23486;51.956;5.888;2023-05-16T07:51:01;11.60;99.90
37642;DHT22;23486;51.956;5.888;2023-05-16T07:53:27;11.90;99.90
37642;DHT22;23486;51.956;5.888;2023-05-16T07:55:52;11.90;99.90
37642;DHT22;23486;51.956;5.888;2023-05-16T07:58:18;11.90;99.90
37642;DHT22;23486;51.956;5.888;2023-05-16T08:00:44;11.90;99.90
37642;DHT22;23486;51.956;5.888;2023-05-16T08:03:10;12.00;99.90
37642;DHT22;23486;51.956;5.888;2023-05-16T08:05:35;12.10;99.90
37642;DHT22;23486;51.956;5.888;2023-05-16T08:08:01;12.10;99.90
37642;DHT22;23486;51.956;5.888;2023-05-16T08:10:26;12.10;99.90
37642;DHT22;23486;51.956;5.888;2023-05-16T08:12:52;12.10;99.90
37642;DHT22;23486;51.956;5.888;2023-05-16T08:15:18;12.10;99.90
37642;DHT22;23486;51.956;5.888;2023-05-16T08:17:43;12.20;99.90
37642;DHT22;23486;51.956;5.888;2023-05-16T08:20:09;12.20;99.90
37642;DHT22;23486;51.956;5.888;2023-05-16T08:22:35;12.20;99.90
37642;DHT22;23486;51.956;5.888;2023-05-16T08:25:01;12.30;99.90
37642;DHT22;23486;51.956;5.888;2023-05-16T08:27:27;12.40;99.90
37642;DHT22;23486;51.956;5.888;2023-05-16T08:29:53;12.60;99.90
37642;DHT22;23486;51.956;5.888;2023-05-16T08:32:18;12.70;99.80
37642;DHT22;23486;51.956;5.888;2023-05-16T08:34:44;12.70;99.70
37642;DHT22;23486;51.956;5.888;2023-05-16T08:37:10;12.60;99.90
37642;DHT22;23486;51.956;5.888;2023-05-16T08:39:38;12.40;99.90
37642;DHT22;23486;51.956;5.888;2023-05-16T08:42:04;12.30;99.90
37642;DHT22;23486;51.956;5.888;2023-05-16T08:44:30;12.10;99.90
37642;DHT22;23486;51.956;5.888;2023-05-16T08:46:56;12.10;99.90
37642;DHT22;23486;51.956;5.888;2023-05-16T08:49:22;12.10;99.90
37642;DHT22;23486;51.956;5.888;2023-05-16T08:51:56;12.10;99.90
37642;DHT22;23486;51.956;5.888;2023-05-16T08:54:22;12.20;99.90
37642;DHT22;23486;51.956;5.888;2023-05-16T08:56:48;12.20;99.90
37642;DHT22;23486;51.956;5.888;2023-05-16T08:59:15;12.30;99.90
37642;DHT22;23486;51.956;5.888;2023-05-16T09:01:41;12.20;99.50
37642;DHT22;23486;51.956;5.888;2023-05-16T09:04:08;12.20;99.10
37642;DHT22;23486;51.956;5.888;2023-05-16T09:06:37;12.30;99.10
37642;DHT22;23486;51.956;5.888;2023-05-16T09:09:03;12.30;99.50
37642;DHT22;23486;51.956;5.888;2023-05-16T09:11:32;12.50;99.10
37642;DHT22;23486;51.956;5.888;2023-05-16T09:13:57;12.60;98.60
37642;DHT22;23486;51.956;5.888;2023-05-16T09:16:23;12.70;98.60
37642;DHT22;23486;51.956;5.888;2023-05-16T09:18:57;12.90;98.20
37642;DHT22;23486;51.956;5.888;2023-05-16T09:21:31;13.00;97.80
37642;DHT22;23486;51.956;5.888;2023-05-16T09:24:07;13.20;98.00
37642;DHT22;23486;51.956;5.888;2023-05-16T09:26:34;13.40;97.50
37642;DHT22;23486;51.956;5.888;2023-05-16T09:29:00;13.40;97.60
37642;DHT22;23486;51.956;5.888;2023-05-16T09:31:28;13.30;97.20
37642;DHT22;23486;51.956;5.888;2023-05-16T09:34:01;13.30;96.80
37642;DHT22;23486;51.956;5.888;2023-05-16T09:36:27;13.20;96.50
37642;DHT22;23486;51.956;5.888;2023-05-16T09:38:52;13.20;96.80
37642;DHT22;23486;51.956;5.888;2023-05-16T09:41:20;13.20;97.00
37642;DHT22;23486;51.956;5.888;2023-05-16T09:43:46;13.10;97.30
37642;DHT22;23486;51.956;5.888;2023-05-16T09:46:15;13.00;97.30
37642;DHT22;23486;51.956;5.888;2023-05-16T09:48:45;12.80;97.60
37642;DHT22;23486;51.956;5.888;2023-05-16T09:51:12;12.70;98.20
37642;DHT22;23486;51.956;5.888;2023-05-16T09:53:38;12.90;98.60
37642;DHT22;23486;51.956;5.888;2023-05-16T09:56:10;13.20;98.90
37642;DHT22;23486;51.956;5.888;2023-05-16T09:58:38;13.40;98.70
37642;DHT22;23486;51.956;5.888;2023-05-16T10:01:05;13.60;98.50
37642;DHT22;23486;51.956;5.888;2023-05-16T10:03:33;13.70;97.70
37642;DHT22;23486;51.956;5.888;2023-05-16T10:05:59;13.60;95.60
37642;DHT22;23486;51.956;5.888;2023-05-16T10:08:26;13.60;95.30
37642;DHT22;23486;51.956;5.888;2023-05-16T10:10:54;13.70;95.30
37642;DHT22;23486;51.956;5.888;2023-05-16T10:13:21;13.90;94.80
37642;DHT22;23486;51.956;5.888;2023-05-16T10:15:48;14.00;93.40
37642;DHT22;23486;51.956;5.888;2023-05-16T10:18:16;14.10;92.40
37642;DHT22;23486;51.956;5.888;2023-05-16T10:20:45;14.30;92.30
37642;DHT22;23486;51.956;5.888;2023-05-16T10:23:16;14.40;91.90
37642;DHT22;23486;51.956;5.888;2023-05-16T10:25:44;14.50;92.10
37642;DHT22;23486;51.956;5.888;2023-05-16T10:28:10;14.40;91.80
37642;DHT22;23486;51.956;5.888;2023-05-16T10:30:40;14.10;92.10
37642;DHT22;23486;51.956;5.888;2023-05-16T10:33:06;13.90;92.20
37642;DHT22;23486;51.956;5.888;2023-05-16T10:35:33;13.70;92.30
37642;DHT22;23486;51.956;5.888;2023-05-16T10:37:59;13.80;92.20
37642;DHT22;23486;51.956;5.888;2023-05-16T10:40:26;14.00;91.90
37642;DHT22;23486;51.956;5.888;2023-05-16T10:43:00;14.10;91.50
37642;DHT22;23486;51.956;5.888;2023-05-16T10:45:26;14.50;91.00
37642;DHT22;23486;51.956;5.888;2023-05-16T10:47:56;14.60;90.70
37642;DHT22;23486;51.956;5.888;2023-05-16T10:53:34;14.60;88.20
37642;DHT22;23486;51.956;5.888;2023-05-16T11:06:29;14.40;89.80
37642;DHT22;23486;51.956;5.888;2023-05-16T11:11:55;14.70;90.00
37642;DHT22;23486;51.956;5.888;2023-05-16T11:14:48;14.70;89.30
37642;DHT22;23486;51.956;5.888;2023-05-16T11:17:22;14.70;89.70
37642;DHT22;23486;51.956;5.888;2023-05-16T11:19:56;14.70;87.90
37642;DHT22;23486;51.956;5.888;2023-05-16T11:22:32;14.60;86.90
37642;DHT22;23486;51.956;5.888;2023-05-16T11:25:05;14.70;85.30
37642;DHT22;23486;51.956;5.888;2023-05-16T11:27:49;14.80;85.20
37642;DHT22;23486;51.956;5.888;2023-05-16T11:30:16;14.90;85.50
37642;DHT22;23486;51.956;5.888;2023-05-16T11:32:44;15.00;85.70
37642;DHT22;23486;51.956;5.888;2023-05-16T11:35:11;15.00;86.20
37642;DHT22;23486;51.956;5.888;2023-05-16T11:37:37;15.10;85.80
37642;DHT22;23486;51.956;5.888;2023-05-16T11:40:07;15.10;84.90
37642;DHT22;23486;51.956;5.888;2023-05-16T11:45:13;15.30;85.00
37642;DHT22;23486;51.956;5.888;2023-05-16T11:47:40;15.30;84.00
37642;DHT22;23486;51.956;5.888;2023-05-16T11:50:13;15.30;83.90
37642;DHT22;23486;51.956;5.888;2023-05-16T11:52:39;15.20;83.90
37642;DHT22;23486;51.956;5.888;2023-05-16T11:55:07;15.30;82.70
37642;DHT22;23486;51.956;5.888;2023-05-16T11:57:37;15.10;81.90
37642;DHT22;23486;51.956;5.888;2023-05-16T12:00:04;14.90;82.10
37642;DHT22;23486;51.956;5.888;2023-05-16T12:02:35;14.80;82.50
37642;DHT22;23486;51.956;5.888;2023-05-16T12:05:09;14.80;83.30
37642;DHT22;23486;51.956;5.888;2023-05-16T12:07:35;15.00;83.00
37642;DHT22;23486;51.956;5.888;2023-05-16T12:10:08;15.00;80.20
37642;DHT22;23486;51.956;5.888;2023-05-16T12:12:35;15.10;81.30
37642;DHT22;23486;51.956;5.888;2023-05-16T12:15:03;15.30;82.00
37642;DHT22;23486;51.956;5.888;2023-05-16T12:17:29;15.20;80.70
37642;DHT22;23486;51.956;5.888;2023-05-16T12:19:55;15.20;80.40
37642;DHT22;23486;51.956;5.888;2023-05-16T12:22:21;15.10;80.60
37642;DHT22;23486;51.956;5.888;2023-05-16T12:24:49;15.10;80.70
37642;DHT22;23486;51.956;5.888;2023-05-16T12:27:21;15.20;79.70
37642;DHT22;23486;51.956;5.888;2023-05-16T12:29:48;15.40;80.50
37642;DHT22;23486;51.956;5.888;2023-05-16T12:32:17;15.60;80.60
37642;DHT22;23486;51.956;5.888;2023-05-16T12:34:48;15.70;80.10
37642;DHT22;23486;51.956;5.888;2023-05-16T12:37:15;15.70;80.40
37642;DHT22;23486;51.956;5.888;2023-05-16T12:39:41;15.70;80.10
37642;DHT22;23486;51.956;5.888;2023-05-16T12:42:06;15.70;80.30
37642;DHT22;23486;51.956;5.888;2023-05-16T12:44:34;15.80;78.30
37642;DHT22;23486;51.956;5.888;2023-05-16T12:47:01;15.70;78.70
37642;DHT22;23486;51.956;5.888;2023-05-16T12:49:27;15.50;78.00
37642;DHT22;23486;51.956;5.888;2023-05-16T12:51:55;15.40;78.80
37642;DHT22;23486;51.956;5.888;2023-05-16T12:54:23;15.30;79.80
37642;DHT22;23486;51.956;5.888;2023-05-16T12:56:49;15.20;79.50
37642;DHT22;23486;51.956;5.888;2023-05-16T12:59:14;15.00;79.30
37642;DHT22;23486;51.956;5.888;2023-05-16T13:01:40;14.80;79.70
37642;DHT22;23486;51.956;5.888;2023-05-16T13:04:07;14.60;79.90
37642;DHT22;23486;51.956;5.888;2023-05-16T13:06:33;14.50;80.30
37642;DHT22;23486;51.956;5.888;2023-05-16T13:08:58;14.40;81.60
37642;DHT22;23486;51.956;5.888;2023-05-16T13:11:24;14.40;82.70
37642;DHT22;23486;51.956;5.888;2023-05-16T13:13:51;14.50;83.90
37642;DHT22;23486;51.956;5.888;2023-05-16T13:16:16;14.60;83.60
37642;DHT22;23486;51.956;5.888;2023-05-16T13:18:42;14.60;83.90
37642;DHT22;23486;51.956;5.888;2023-05-16T13:21:07;14.70;84.20
37642;DHT22;23486;51.956;5.888;2023-05-16T13:23:33;14.80;84.20
37642;DHT22;23486;51.956;5.888;2023-05-16T13:25:59;14.90;84.60
37642;DHT22;23486;51.956;5.888;2023-05-16T13:28:24;15.10;84.90
37642;DHT22;23486;51.956;5.888;2023-05-16T13:30:50;15.30;84.30
37642;DHT22;23486;51.956;5.888;2023-05-16T13:33:16;15.50;83.80
37642;DHT22;23486;51.956;5.888;2023-05-16T13:35:42;15.50;83.10
37642;DHT22;23486;51.956;5.888;2023-05-16T13:38:08;15.40;83.60
37642;DHT22;23486;51.956;5.888;2023-05-16T13:40:34;15.40;83.80
37642;DHT22;23486;51.956;5.888;2023-05-16T13:43:00;15.40;84.00
37642;DHT22;23486;51.956;5.888;2023-05-16T13:45:26;15.40;84.20
37642;DHT22;23486;51.956;5.888;2023-05-16T13:47:52;15.20;84.10
37642;DHT22;23486;51.956;5.888;2023-05-16T13:50:17;15.10;84.50
37642;DHT22;23486;51.956;5.888;2023-05-16T13:52:43;15.10;85.00
37642;DHT22;23486;51.956;5.888;2023-05-16T13:55:09;15.00;85.20
37642;DHT22;23486;51.956;5.888;2023-05-16T13:57:35;14.90;85.90
37642;DHT22;23486;51.956;5.888;2023-05-16T14:00:01;14.80;86.50
37642;DHT22;23486;51.956;5.888;2023-05-16T14:02:32;14.60;86.80
37642;DHT22;23486;51.956;5.888;2023-05-16T14:04:59;14.60;87.20
37642;DHT22;23486;51.956;5.888;2023-05-16T14:07:25;14.50;87.40
37642;DHT22;23486;51.956;5.888;2023-05-16T14:09:51;14.50;87.70
37642;DHT22;23486;51.956;5.888;2023-05-16T14:12:17;14.50;88.30
37642;DHT22;23486;51.956;5.888;2023-05-16T14:14:42;14.40;88.10
37642;DHT22;23486;51.956;5.888;2023-05-16T14:17:08;14.30;88.60
37642;DHT22;23486;51.956;5.888;2023-05-16T14:19:34;14.20;88.40
37642;DHT22;23486;51.956;5.888;2023-05-16T14:22:00;14.10;88.90
37642;DHT22;23486;51.956;5.888;2023-05-16T14:24:26;14.10;89.40
37642;DHT22;23486;51.956;5.888;2023-05-16T14:26:51;14.00;89.90
37642;DHT22;23486;51.956;5.888;2023-05-16T14:29:20;14.00;90.20
37642;DHT22;23486;51.956;5.888;2023-05-16T14:31:46;14.00;90.40
37642;DHT22;23486;51.956;5.888;2023-05-16T14:34:11;14.00;90.60
37642;DHT22;23486;51.956;5.888;2023-05-16T14:36:37;14.00;90.80
37642;DHT22;23486;51.956;5.888;2023-05-16T14:39:04;14.10;90.80
37642;DHT22;23486;51.956;5.888;2023-05-16T14:41:29;14.20;90.70
37642;DHT22;23486;51.956;5.888;2023-05-16T14:43:55;14.30;90.90
37642;DHT22;23486;51.956;5.888;2023-05-16T14:46:21;14.30;90.70
37642;DHT22;23486;51.956;5.888;2023-05-16T14:48:46;14.30;90.50
37642;DHT22;23486;51.956;5.888;2023-05-16T14:51:12;14.20;90.60
37642;DHT22;23486;51.956;5.888;2023-05-16T14:53:37;14.20;90.70
37642;DHT22;23486;51.956;5.888;2023-05-16T14:56:03;14.20;90.70
37642;DHT22;23486;51.956;5.888;2023-05-16T14:58:29;14.30;90.70
37642;DHT22;23486;51.956;5.888;2023-05-16T15:00:55;14.30;90.30
37642;DHT22;23486;51.956;5.888;2023-05-16T15:03:21;14.30;90.30
37642;DHT22;23486;51.956;5.888;2023-05-16T15:05:47;14.30;90.40
37642;DHT22;23486;51.956;5.888;2023-05-16T15:08:12;14.30;90.50
37642;DHT22;23486;51.956;5.888;2023-05-16T15:10:38;14.20;90.50
37642;DHT22;23486;51.956;5.888;2023-05-16T15:13:04;14.10;90.70
37642;DHT22;23486;51.956;5.888;2023-05-16T15:15:30;14.00;90.80
37642;DHT22;23486;51.956;5.888;2023-05-16T15:17:55;14.00;91.00
37642;DHT22;23486;51.956;5.888;2023-05-16T15:20:21;14.00;91.10
37642;DHT22;23486;51.956;5.888;2023-05-16T15:22:47;13.90;91.20
37642;DHT22;23486;51.956;5.888;2023-05-16T15:25:13;13.80;91.50
37642;DHT22;23486;51.956;5.888;2023-05-16T15:27:39;13.80;91.70
37642;DHT22;23486;51.956;5.888;2023-05-16T15:30:05;13.80;91.80
37642;DHT22;23486;51.956;5.888;2023-05-16T15:32:31;13.90;92.10
37642;DHT22;23486;51.956;5.888;2023-05-16T15:34:56;13.90;91.90
37642;DHT22;23486;51.956;5.888;2023-05-16T15:37:22;14.00;91.80
37642;DHT22;23486;51.956;5.888;2023-05-16T15:39:48;14.00;91.70
37642;DHT22;23486;51.956;5.888;2023-05-16T15:42:14;13.90;91.50
37642;DHT22;23486;51.956;5.888;2023-05-16T15:44:40;13.80;91.50
37642;DHT22;23486;51.956;5.888;2023-05-16T15:47:06;13.80;91.70
37642;DHT22;23486;51.956;5.888;2023-05-16T15:49:33;13.80;91.90
37642;DHT22;23486;51.956;5.888;2023-05-16T15:51:58;13.80;92.00
37642;DHT22;23486;51.956;5.888;2023-05-16T15:54:24;13.80;92.20
37642;DHT22;23486;51.956;5.888;2023-05-16T15:56:49;13.90;92.20
37642;DHT22;23486;51.956;5.888;2023-05-16T15:59:15;13.80;92.20
37642;DHT22;23486;51.956;5.888;2023-05-16T16:01:41;13.80;92.30
37642;DHT22;23486;51.956;5.888;2023-05-16T16:04:07;13.80;92.30
37642;DHT22;23486;51.956;5.888;2023-05-16T16:06:32;13.80;92.40